Ovapa, West Virginia
Current Conditions -  °F | °C
As of 11:54 PM on Friday 24 Oct 2014 (Local Time) from KCRW Reporting Station
Clear Clear  
Wind Chill: 43°   Ceiling: Unl
Heat Index: 43°   Visibility: 10mi
Dew Point: 41°   Wind: 3mph
Humidity: 93%   Direction: 140°SE
Pressure: 30.06"   Gusts: NA
Location:  38.53°N, 81.15°W
Report Text: KCRW 250354Z 14003KT 10SM CLR 06/05 A3006 RMK AO2 SLP179 T00610050
Loading
Personal Weather Stations






























Interactive Weather Map
Tropical Storm Tracking
New forecast layout! Learn more

10-Day Weather Forecast

Advertisements
Track Severe Weather on mobile